KCRS/CRS METAR and TAF weather

Enter ICAO airport designator
Station Type Date Time Source
KCRS METAR 2021/09/24 01:53 UTC NOAA

KCRS 240153Z AUTO 08003KT 10SM CLR 22/05 A3005 RMK AO2 SLP172 T02220050


Station Type Date Time Source
KCRS Decoded METAR 2021/09/24 01:53 UTC NOAA

CORSICANA AIRFIELD, TX, United States (KCRS) 32-01N 96-23W 133M
Sep 23, 2021 - 09:53 PM EDT / 2021.09.24 0153 UTC
Wind: from the E (080 degrees) at 3 MPH (3 KT):0
Visibility: 10 mile(s):0
Sky conditions: clear
Temperature: 72.0 F (22.2 C)
Dew Point: 41.0 F (5.0 C)
Relative Humidity: 32%
Pressure (altimeter): 30.05 in. Hg (1017 hPa)
ob: KCRS 240153Z AUTO 08003KT 10SM CLR 22/05 A3005 RMK AO2 SLP172 T02220050
cycle: 2

Station Type Date Time Source
KCRS TAF UTC NOAA

Error!

Example: see airport list